General Aviation Weather

Text Reports

Enter one or more of the following location identifiers separated by a space:

Zip Code, Four-Character ICAO or Three-Character IATA airport codes.

METAR - Aviation Routine Weather Report
KJWY - Midlothian, Texas
Updated at 5:15 PM GMT on April 20, 2014 (12:15 PM CDT):
METAR KJWY 201715Z AUTO 15009KT 10SM CLR 22/10 A3013 RMK AO2 T02190100
TAF - Terminal Area Forecast
KJWY - Midlothian, Texas
Updated at 5:15 PM GMT on April 20, 2014 (12:15 PM CDT):
No TAF is currently available for this location.
Decoded:
No decoded TAF is available.
PIREP - Pilot Weather Report
KJWY - Midlothian, Texas
Updated at 5:15 PM GMT on April 20, 2014 (12:15 PM CDT):
No PIREP is currently available for this location.
AIRMET - Airmens Meteorological Information
KJWY - Midlothian, Texas
Updated at 5:15 PM GMT on April 20, 2014 (12:15 PM CDT):
No AIRMET is currently available for this location.
SIGMET - Significant Meteorological Information
KJWY - Midlothian, Texas
Updated at 5:15 PM GMT on April 20, 2014 (12:15 PM CDT):
No SIGMET is currently available for this location.
NOTAM - Notice to Airmen
KJWY - Midlothian, Texas
Updated at 5:15 PM GMT on April 20, 2014 (12:15 PM CDT):
No NOTAM is currently available for this location.
Forecast Area
KJWY - Midlothian, Texas
Updated at 5:15 PM GMT on April 20, 2014 (12:15 PM CDT):
No NOTAM is currently available for this location.
Aviation Weather Maps